M I D A S
Marine Information and Data Acquisition System
Tripno 1957 of the Zeeleeuw from 2010-09-15 06:25:38 to 2010-09-15 10:44:20
Back to CruiseResearch ActivitiesStationsMapUnderway DataData graphs

EquipmentUnitsComment
TimeDGPSUTC
LatitudeDGPSDM.mWGS84
LongitudeDGPSDM.mWGS84
TemperatureSBE03/SBE38deg celciusITS90
ConductivitySBE21S/mITS90
SalinitySBE21 Practical Salinity Units
ChlorophylAChelsea fluorimeterg/lCalibrated in Aceton
Missing or incorrect values are displayed as -999
Sea surface data collected by the RV Zeeleeuw from 2010-09-15 06:11:35 to 2010-09-15 10:53:31
Time Latitude Longitude Temperature Conductivity Salinity ChlorophylA
2010-09-15 06:12:39 51°13.665 2°55.959 19.7247 2.408108 16.367002 -0.861272
2010-09-15 06:13:37 51°13.664 2°55.96 19.7367 2.408003 16.36731 -0.861272
2010-09-15 06:14:37 51°13.663 2°55.959 19.742 2.407897 16.367344 -0.896096
2010-09-15 06:15:38 51°13.663 2°55.96 19.726 2.407792 16.367379 -0.896096
2010-09-15 06:16:37 51°13.662 2°55.96 19.7455 2.407687 16.367687 -0.861272
2010-09-15 06:17:38 51°13.663 2°55.963 19.7462 2.407477 16.366939 -0.861272
2010-09-15 06:18:37 51°13.663 2°55.962 19.7545 2.407477 16.367757 -0.861272
2010-09-15 06:19:37 51°13.662 2°55.96 19.7483 2.407266 16.367555 -0.861272
2010-09-15 06:20:37 51°13.662 2°55.961 19.7447 2.407161 16.36759 -0.896096
2010-09-15 06:21:37 51°13.663 2°55.961 19.7494 2.407056 16.367897 -0.861272
2010-09-15 06:22:37 51°13.662 2°55.96 19.7472 2.406951 16.367933 -0.861272
2010-09-15 06:23:38 51°13.663 2°55.961 19.745 2.406845 16.368513 -0.861272
2010-09-15 06:24:37 51°13.661 2°55.96 19.7657 2.40674 16.368821 -0.826448
2010-09-15 06:25:37 51°13.663 2°55.95 19.7239 2.406425 16.366471 -0.861272
2010-09-15 06:26:41 51°13.685 2°55.849 19.7451 2.406425 16.368381 -0.861272
2010-09-15 06:27:40 51°13.694 2°55.755 19.7431 2.406319 16.368417 -0.861272
2010-09-15 06:28:39 51°13.7 2°55.754 19.6418 2.406109 16.367123 -0.861272
2010-09-15 06:29:41 51°13.69 2°55.744 19.7514 2.40632 16.374149 -0.861272
2010-09-15 06:30:30 51°13.745 2°55.704 19.6744 2.405793 16.364499 -0.826448
2010-09-15 06:31:38 51°13.896 2°55.586 19.6695 2.405373 16.361911 -0.861272
2010-09-15 06:32:37 51°14.052 2°55.476 19.6988 2.405373 16.362457 -0.861272
2010-09-15 06:33:37 51°14.22 2°55.336 19.6382 2.405478 16.362968 -0.861272
2010-09-15 06:34:37 51°14.392 2°55.179 19.6311 2.405898 16.357102 -0.896096
2010-09-15 06:35:37 51°14.556 2°54.994 19.5873 2.406004 16.397237 -0.861272
2010-09-15 06:36:37 51°14.74 2°54.82 19.6369 2.40569 16.429209 -0.896096
2010-09-15 06:37:37 51°14.925 2°54.65 19.6281 2.404849 16.494805 -0.896096
2010-09-15 06:38:37 51°15.103 2°54.46 19.6212 2.401798 16.465519 -0.896096
2010-09-15 06:39:37 51°15.278 2°54.263 19.6312 2.400221 16.500361 -0.861272
2010-09-15 06:40:37 51°15.443 2°54.049 19.6217 2.3998 16.487446 -0.861272
2010-09-15 06:41:37 51°15.604 2°53.823 19.6295 2.398326 16.443341 -0.896096
2010-09-15 06:42:37 51°15.77 2°53.604 19.6428 2.395697 16.44188 -0.861272
2010-09-15 06:43:37 51°15.942 2°53.398 19.6469 2.39454 16.458726 -0.861272
2010-09-15 06:44:37 51°16.121 2°53.217 19.6467 2.398011 16.467601 -0.826448
2010-09-15 06:45:37 51°16.3 2°53.039 19.6917 2.395066 16.488039 -0.826448
2010-09-15 06:46:37 51°16.493 2°52.879 19.7079 2.391594 16.445177 -0.861272
2010-09-15 06:47:37 51°16.693 2°52.738 19.716 2.392331 16.462411 -0.826448
2010-09-15 06:48:37 51°16.895 2°52.603 17.5422 4.515384 33.165462 -0.547855
2010-09-15 06:49:37 51°17.097 2°52.464 17.3747 4.481739 34.317479 -0.408559
2010-09-15 06:50:37 51°17.314 2°52.379 17.3963 4.493352 34.553375 -0.408559
2010-09-15 06:51:37 51°17.536 2°52.332 17.3943 4.508023 34.670402 -0.338911
2010-09-15 06:52:37 51°17.76 2°52.287 17.3941 4.52164 34.799017 -0.269263
2010-09-15 06:53:36 51°17.982 2°52.305 17.4037 4.518367 34.768926 -0.269263
2010-09-15 06:54:37 51°18.211 2°52.365 17.4101 4.510873 34.704955 -0.199615
2010-09-15 06:55:37 51°18.44 2°52.43 17.4107 4.523012 34.803325 -0.234439
2010-09-15 06:56:36 51°18.662 2°52.499 17.4041 4.525017 34.821869 -0.164791
2010-09-15 06:57:37 51°18.891 2°52.571 17.385 4.526389 34.839976 -0.129967
2010-09-15 06:58:37 51°19.119 2°52.638 17.3598 4.523751 34.832281 -0.164791
2010-09-15 06:59:37 51°19.346 2°52.69 17.3341 4.521113 34.836521 -0.164791
2010-09-15 07:00:37 51°19.572 2°52.757 17.339 4.519846 34.841303 -0.199615
2010-09-15 07:01:37 51°19.8 2°52.819 17.338 4.517735 34.816787 -0.199615
2010-09-15 07:02:37 51°20.026 2°52.906 17.3398 4.515941 34.805063 -0.095143
2010-09-15 07:03:37 51°20.248 2°52.995 17.3439 4.515941 34.805063 -0.095143
2010-09-15 07:04:37 51°20.47 2°53.093 17.3498 4.509291 34.742637 -0.060319
2010-09-15 07:05:36 51°20.687 2°53.192 17.3575 4.501691 34.671423 -0.025495
2010-09-15 07:06:36 51°20.907 2°53.282 17.3606 4.493669 34.596612 -0.060319
2010-09-15 07:07:37 51°21.128 2°53.388 17.354 4.483536 34.508632 -0.060319
2010-09-15 07:08:37 51°21.347 2°53.486 17.3546 4.472982 34.421399 0.009329
2010-09-15 07:09:37 51°21.567 2°53.572 17.3508 4.469815 34.392875 -0.025495
2010-09-15 07:10:36 51°21.785 2°53.659 17.3597 4.466332 34.366588 -0.025495
2010-09-15 07:11:37 51°22.011 2°53.75 17.3799 4.470765 34.392376 -0.060319
2010-09-15 07:12:37 51°22.234 2°53.846 17.3871 4.476042 34.422321 -0.095143
2010-09-15 07:13:36 51°22.451 2°53.936 17.3654 4.477836 34.437153 -0.095143
2010-09-15 07:14:36 51°22.671 2°54.033 17.3431 4.473087 34.41486 -0.129967
2010-09-15 07:15:36 51°22.893 2°54.126 17.3317 4.466332 34.374028 -0.095143
2010-09-15 07:16:37 51°23.12 2°54.225 17.3399 4.464643 34.346464 -0.129967
2010-09-15 07:17:37 51°23.346 2°54.272 17.397 4.460527 34.312868 -0.129967
2010-09-15 07:18:37 51°23.573 2°54.304 17.405 4.469603 34.346461 -0.164791
2010-09-15 07:19:37 51°23.798 2°54.339 17.3524 4.459999 34.281121 -0.025495
2010-09-15 07:20:37 51°24.023 2°54.367 17.3911 4.43794 34.114119 0.009329
2010-09-15 07:21:36 51°24.243 2°54.396 17.3855 4.438573 34.093752 -0.025495
2010-09-15 07:22:36 51°24.469 2°54.428 17.3978 4.435829 34.072616 0.044153
2010-09-15 07:23:37 51°24.7 2°54.459 17.419 4.439101 34.089078 0.009329
2010-09-15 07:24:37 51°24.927 2°54.49 17.3932 4.451871 34.179178 -0.025495
2010-09-15 07:25:36 51°25.144 2°54.52 17.3838 4.41947 33.931407 0.148626
2010-09-15 07:26:37 51°25.37 2°54.552 17.3983 4.390974 33.686111 0.218274
2010-09-15 07:27:36 51°25.59 2°54.577 17.4051 4.382741 33.605187 0.148626
2010-09-15 07:28:36 51°25.81 2°54.611 17.4197 4.379997 33.575006 0.148626
2010-09-15 07:29:36 51°26.036 2°54.642 17.4257 4.378097 33.550266 0.148626
2010-09-15 07:30:37 51°26.267 2°54.677 17.4417 4.377781 33.540311 0.148626
2010-09-15 07:31:36 51°26.487 2°54.714 17.4601 4.383479 33.574658 0.18345
2010-09-15 07:32:36 51°26.713 2°54.748 17.457 4.392767 33.646375 0.218274
2010-09-15 07:33:36 51°26.943 2°54.778 17.4626 4.396777 33.681346 0.287922
2010-09-15 07:34:37 51°27.178 2°54.813 17.4729 4.399099 33.693976 0.392394
2010-09-15 07:35:37 51°27.409 2°54.85 17.4828 4.402687 33.712003 0.35757
2010-09-15 07:36:36 51°27.635 2°54.885 17.4697 4.410075 33.777727 0.427218
2010-09-15 07:37:36 51°27.862 2°54.929 17.471 4.424535 33.905325 0.427218
2010-09-15 07:38:37 51°28.094 2°54.963 17.4673 4.434245 33.99105 0.496866
2010-09-15 07:39:36 51°28.316 2°54.991 17.464 4.437516 34.019732 0.462042
2010-09-15 07:40:37 51°28.549 2°55.015 17.4636 4.438783 34.032435 0.462042
2010-09-15 07:41:37 51°28.776 2°55.034 17.4532 4.438572 34.031235 0.35757
2010-09-15 07:42:37 51°29.002 2°55.072 17.4503 4.440261 34.057358 0.427218
2010-09-15 07:43:37 51°29.224 2°55.103 17.466 4.438572 34.042249 0.53169
2010-09-15 07:44:37 51°29.445 2°55.135 17.4795 4.430445 33.955404 0.53169
2010-09-15 07:45:37 51°29.67 2°55.157 17.4767 4.421263 33.872401 0.53169
2010-09-15 07:46:37 51°29.898 2°55.191 17.483 4.416197 33.828975 0.601338
2010-09-15 07:47:36 51°30.121 2°55.224 17.501 4.416408 33.825315 0.566514
2010-09-15 07:48:36 51°30.346 2°55.26 17.5202 4.426539 33.892074 0.53169
2010-09-15 07:49:36 51°30.573 2°55.292 17.5203 4.432027 33.928749 0.427218
2010-09-15 07:50:36 51°30.801 2°55.332 17.5096 4.439627 33.996302 0.462042
2010-09-15 07:51:36 51°31.029 2°55.355 17.4871 4.452081 34.113473 0.392394
2010-09-15 07:52:36 51°31.258 2°55.332 17.4976 4.459047 34.187962 0.427218
2010-09-15 07:53:37 51°31.488 2°55.316 17.5024 4.46728 34.249406 0.566514
2010-09-15 07:54:37 51°31.714 2°55.294 17.5082 4.471502 34.280107 0.35757
2010-09-15 07:55:36 51°31.934 2°55.273 17.5054 4.473718 34.297286 0.427218
2010-09-15 07:56:37 51°32.157 2°55.24 17.5057 4.47604 34.317835 0.427218
2010-09-15 07:57:37 51°32.378 2°55.19 17.4982 4.478785 34.343861 0.35757
2010-09-15 07:58:37 51°32.599 2°55.143 17.4892 4.480896 34.366924 0.462042
2010-09-15 07:59:36 51°32.818 2°55.096 17.4812 4.480685 34.37252 0.462042
2010-09-15 08:00:36 51°32.879 2°54.974 17.4723 4.481529 34.387805 0.287922
2010-09-15 08:01:36 51°32.829 2°54.977 17.4709 4.481635 34.391802 0.322746
2010-09-15 08:02:37 51°32.805 2°55.088 17.4728 4.481424 34.390606 0.287922
2010-09-15 08:03:36 51°32.786 2°55.163 17.4718 4.48174 34.389619 0.287922
2010-09-15 08:04:36 51°32.775 2°55.219 17.473 4.482057 34.394194 0.322746
2010-09-15 08:05:36 51°32.768 2°55.261 17.4728 4.481424 34.388134 0.322746
2010-09-15 08:06:37 51°32.766 2°55.294 17.4718 4.482057 34.393575 0.322746
2010-09-15 08:07:36 51°32.768 2°55.323 17.4756 4.481424 34.388752 0.322746
2010-09-15 08:08:36 51°32.769 2°55.352 17.4736 4.481107 34.382941 0.322746
2010-09-15 08:09:37 51°32.77 2°55.376 17.4771 4.481424 34.387516 0.322746
2010-09-15 08:10:36 51°32.775 2°55.402 17.4754 4.481318 34.384137 0.322746
2010-09-15 08:11:36 51°32.782 2°55.431 17.4795 4.479946 34.371113 0.35757
2010-09-15 08:12:36 51°32.773 2°55.46 17.4786 4.482057 34.389867 0.35757
2010-09-15 08:13:37 51°32.734 2°55.484 17.4814 4.480579 34.377172 0.322746
2010-09-15 08:14:36 51°32.702 2°55.441 17.4785 4.481212 34.381995 0.287922
2010-09-15 08:15:36 51°32.766 2°55.296 17.4806 4.480263 34.373834 0.462042
2010-09-15 08:16:36 51°32.934 2°55.112 17.4828 4.480896 34.379274 0.462042
2010-09-15 08:17:37 51°33.15 2°55.097 17.4827 4.481846 34.381876 0.35757
2010-09-15 08:18:37 51°33.248 2°55.386 17.4795 4.481951 34.386489 0.392394
2010-09-15 08:19:37 51°33.21 2°55.627 17.47 4.47984 34.375766 0.35757
2010-09-15 08:20:36 51°33.165 2°55.728 17.4663 4.479418 34.374609 0.322746
2010-09-15 08:21:36 51°33.153 2°55.768 17.4654 4.479102 34.371888 0.322746
2010-09-15 08:22:36 51°33.156 2°55.791 17.4645 4.479418 34.377081 0.322746
2010-09-15 08:23:37 51°33.166 2°55.82 17.4681 4.479524 34.377988 0.392394
2010-09-15 08:24:36 51°33.179 2°55.848 17.4689 4.479629 34.379513 0.392394
2010-09-15 08:25:36 51°33.19 2°55.875 17.4655 4.479841 34.380091 0.35757
2010-09-15 08:26:36 51°33.199 2°55.905 17.4651 4.479418 34.377699 0.392394
2010-09-15 08:27:37 51°33.206 2°55.933 17.4677 4.47984 34.379473 0.427218
2010-09-15 08:28:36 51°33.208 2°55.959 17.463 4.479418 34.377699 0.392394
2010-09-15 08:29:36 51°33.208 2°55.985 17.4598 4.478996 34.373453 0.427218
2010-09-15 08:30:36 51°33.213 2°56.009 17.463 4.479313 34.379264 0.35757
2010-09-15 08:31:37 51°33.217 2°56.032 17.4615 4.479207 34.378356 0.35757
2010-09-15 08:32:36 51°33.221 2°56.056 17.4654 4.480157 34.385284 0.392394
2010-09-15 08:33:36 51°33.228 2°56.082 17.4634 4.479946 34.382852 0.392394
2010-09-15 08:34:37 51°33.236 2°56.108 17.4631 4.480052 34.382523 0.35757
2010-09-15 08:35:36 51°33.242 2°56.132 17.4632 4.479841 34.381327 0.322746
2010-09-15 08:36:36 51°33.248 2°56.157 17.4615 4.480368 34.385244 0.322746
2010-09-15 08:37:36 51°33.255 2°56.183 17.4599 4.479418 34.377699 0.35757
2010-09-15 08:38:37 51°33.262 2°56.21 17.4604 4.479629 34.380749 0.35757
2010-09-15 08:39:36 51°33.255 2°56.23 17.4597 4.479207 34.377738 0.427218
2010-09-15 08:40:36 51°33.206 2°56.213 17.4594 4.479313 34.379264 0.35757
2010-09-15 08:41:36 51°33.134 2°56.19 17.4635 4.479207 34.377738 0.35757
2010-09-15 08:42:37 51°33.088 2°56.182 17.4661 4.479418 34.379553 0.35757
2010-09-15 08:43:36 51°33.069 2°56.19 17.4675 4.479524 34.379224 0.287922
2010-09-15 08:44:36 51°33.065 2°56.208 17.4659 4.480052 34.380051 0.35757
2010-09-15 08:45:36 51°33.066 2°56.229 17.4693 4.479735 34.37733 0.392394
2010-09-15 08:46:37 51°33.067 2°56.25 17.4687 4.480052 34.379433 0.322746
2010-09-15 08:47:36 51°33.062 2°56.269 17.4703 4.479629 34.375805 0.35757
2010-09-15 08:48:36 51°33.059 2°56.292 17.469 4.480368 34.379065 0.35757
2010-09-15 08:49:36 51°33.063 2°56.315 17.4728 4.479313 34.369996 0.35757
2010-09-15 08:50:37 51°33.072 2°56.341 17.4736 4.479946 34.373584 0.35757
2010-09-15 08:51:36 51°33.084 2°56.369 17.4731 4.480157 34.373544 0.392394
2010-09-15 08:52:36 51°33.095 2°56.396 17.4739 4.480051 34.370167 0.392394
2010-09-15 08:53:36 51°33.103 2°56.421 17.4762 4.47984 34.369589 0.35757
2010-09-15 08:54:37 51°33.103 2°56.453 17.4755 4.478785 34.359904 0.35757
2010-09-15 08:55:37 51°33.089 2°56.52 17.4792 4.47984 34.368354 0.35757
2010-09-15 08:56:37 51°33.119 2°56.607 17.481 4.480157 34.371074 0.392394
2010-09-15 08:57:36 51°33.176 2°56.624 17.4812 4.480157 34.370456 0.392394
2010-09-15 08:58:36 51°33.22 2°56.577 17.477 4.479735 34.369917 0.392394
2010-09-15 08:59:36 51°33.243 2°56.554 17.4743 4.479735 34.3693 0.392394
2010-09-15 09:00:37 51°33.26 2°56.567 17.4713 4.479524 34.368721 0.392394
2010-09-15 09:01:37 51°33.27 2°56.594 17.4726 4.480051 34.375726 0.427218
2010-09-15 09:02:36 51°33.274 2°56.618 17.4714 4.479524 34.374281 0.496866
2010-09-15 09:03:36 51°33.278 2°56.642 17.4698 4.479735 34.374859 0.35757
2010-09-15 09:04:36 51°33.279 2°56.663 17.4671 4.47984 34.377001 0.287922
2010-09-15 09:05:36 51°33.287 2°56.685 17.4679 4.478891 34.371928 0.35757
2010-09-15 09:06:37 51°33.328 2°56.76 17.471 4.478996 34.372217 0.35757
2010-09-15 09:07:37 51°33.288 2°56.876 17.4828 4.479524 34.371192 0.392394
2010-09-15 09:08:36 51°33.155 2°57.042 17.4863 4.479735 34.368682 0.322746
2010-09-15 09:09:36 51°32.983 2°57.23 17.5036 4.478996 34.349375 0.287922
2010-09-15 09:10:37 51°32.799 2°57.382 17.5091 4.475935 34.315696 0.392394
2010-09-15 09:11:36 51°32.616 2°57.515 17.523 4.474035 34.287691 0.462042
2010-09-15 09:12:36 51°32.422 2°57.593 17.5294 4.472768 34.266984 0.462042
2010-09-15 09:13:37 51°32.22 2°57.59 17.5356 4.468651 34.230449 0.462042
2010-09-15 09:14:37 51°32.023 2°57.572 17.5325 4.466646 34.213252 0.427218
2010-09-15 09:15:36 51°31.827 2°57.567 17.5255 4.461896 34.170686 0.392394
2010-09-15 09:16:37 51°31.628 2°57.534 17.5132 4.431711 33.921776 0.53169
2010-09-15 09:17:37 51°31.43 2°57.497 17.505 4.414824 33.782625 0.53169
2010-09-15 09:18:37 51°31.227 2°57.455 17.507 4.405747 33.710976 0.53169
2010-09-15 09:19:37 51°31.023 2°57.42 17.5024 4.404692 33.700127 0.496866
2010-09-15 09:20:37 51°30.821 2°57.378 17.4714 4.40237 33.687508 0.53169
2010-09-15 09:21:37 51°30.624 2°57.295 17.4678 4.393927 33.635767 0.35757
2010-09-15 09:22:37 51°30.426 2°57.199 17.4778 4.39055 33.612886 0.462042
2010-09-15 09:23:37 51°30.229 2°57.109 17.4648 4.391395 33.618909 0.35757
2010-09-15 09:24:36 51°30.035 2°57.02 17.4689 4.394455 33.644516 0.392394
2010-09-15 09:25:37 51°29.836 2°56.922 17.4803 4.39741 33.664989 0.35757
2010-09-15 09:26:36 51°29.64 2°56.84 17.4812 4.398888 33.666154 0.35757
2010-09-15 09:27:36 51°29.442 2°56.758 17.4881 4.397621 33.65652 0.392394
2010-09-15 09:28:37 51°29.239 2°56.667 17.4892 4.401843 33.687223 0.35757
2010-09-15 09:29:36 51°29.045 2°56.576 17.4918 4.40522 33.716745 0.35757
2010-09-15 09:30:37 51°28.842 2°56.483 17.5088 4.409336 33.746541 0.392394
2010-09-15 09:31:37 51°28.644 2°56.399 17.5269 4.409547 33.735028 0.392394
2010-09-15 09:32:36 51°28.448 2°56.318 17.5279 4.407858 33.710898 0.427218
2010-09-15 09:33:37 51°28.248 2°56.24 17.5381 4.408913 33.715091 0.392394
2010-09-15 09:34:37 51°28.049 2°56.145 17.5298 4.409546 33.716881 0.496866
2010-09-15 09:35:36 51°27.85 2°56.063 17.5268 4.40733 33.702151 0.392394
2010-09-15 09:36:37 51°27.65 2°55.978 17.7224 0.101584 0.590029 -0.687152
2010-09-15 09:37:36 51°27.457 2°55.887 17.7913 0.081082 0.467083 -0.687152
2010-09-15 09:38:37 51°27.252 2°55.803 17.8694 0.075151 0.431766 -0.687152
2010-09-15 09:39:36 51°27.051 2°55.715 17.9436 0.069116 0.395896 -0.687152
2010-09-15 09:40:37 51°26.843 2°55.627 18.0256 0.066931 0.382962 -0.687152
2010-09-15 09:41:37 51°26.636 2°55.54 18.102 0.063498 0.362709 -0.687152
2010-09-15 09:42:36 51°26.43 2°55.454 18.179 0.060689 0.346155 -0.687152
2010-09-15 09:43:37 51°26.22 2°55.366 18.249 0.058608 0.33393 -0.617504
2010-09-15 09:44:36 51°26.017 2°55.28 18.318 0.056944 0.324156 -0.617504
2010-09-15 09:45:37 51°25.809 2°55.199 18.3881 0.055591 0.316226 -0.652328
2010-09-15 09:46:37 51°25.605 2°55.123 18.4469 0.054551 0.310153 -0.687152
2010-09-15 09:47:36 51°25.409 2°55.029 18.5105 0.053615 0.304709 -0.687152
2010-09-15 09:48:36 51°25.204 2°54.964 18.5788 0.052887 0.300459 -0.687152
2010-09-15 09:49:37 51°24.994 2°54.914 18.6313 0.051534 0.292554 -0.687152
2010-09-15 09:50:36 51°24.791 2°54.852 18.6869 0.050806 0.288333 -0.687152
2010-09-15 09:51:36 51°24.583 2°54.787 18.7513 0.049974 0.283474 -0.652328
2010-09-15 09:52:37 51°24.369 2°54.73 18.8017 0.049454 0.280488 -0.652328
2010-09-15 09:53:36 51°24.164 2°54.667 18.8498 0.04883 0.276846 -0.652328
2010-09-15 09:54:37 51°23.953 2°54.603 18.8945 0.047998 0.272025 -0.687152
2010-09-15 09:55:36 51°23.749 2°54.533 18.9806 0.047373 0.268371 -0.652328
2010-09-15 09:56:36 51°23.541 2°54.479 18.9984 0.046749 0.264779 -0.652328
2010-09-15 09:57:36 51°23.33 2°54.416 19.0415 0.046125 0.26121 -0.687152
2010-09-15 09:58:37 51°23.116 2°54.35 19.1156 0.045501 0.257585 -0.652328
2010-09-15 09:59:37 51°22.905 2°54.285 19.1671 0.044877 0.253959 -0.652328
2010-09-15 10:00:37 51°22.701 2°54.189 19.2332 0.044357 0.250998 -0.687152
2010-09-15 10:01:36 51°22.506 2°54.075 19.2435 0.043837 0.248007 -0.687152
2010-09-15 10:02:36 51°22.304 2°53.958 19.2848 0.043109 0.243815 -0.652328
2010-09-15 10:03:36 51°22.103 2°53.855 19.3463 0.043629 0.246795 -0.687152
2010-09-15 10:04:36 51°21.898 2°53.754 19.406 0.043005 0.243185 -0.652328
2010-09-15 10:05:37 51°21.688 2°53.668 19.4142 0.042381 0.23959 -0.652328
2010-09-15 10:06:36 51°21.488 2°53.577 19.4518 0.04186 0.236601 -0.652328
2010-09-15 10:07:37 51°21.282 2°53.478 19.502 0.041236 0.233022 -0.687152
2010-09-15 10:08:36 51°21.084 2°53.379 19.5432 0.040716 0.229991 -0.652328
2010-09-15 10:09:36 51°20.882 2°53.285 19.6006 0.040196 0.227039 -0.652328
2010-09-15 10:10:36 51°20.676 2°53.189 19.6643 0.039676 0.224027 -0.687152
2010-09-15 10:11:37 51°20.468 2°53.096 19.6924 0.039052 0.220464 -0.687152
2010-09-15 10:12:36 51°20.267 2°52.996 19.7238 0.038636 0.218081 -0.687152
2010-09-15 10:13:37 51°20.055 2°52.914 19.7224 0.038012 0.214467 -0.687152
2010-09-15 10:14:37 51°19.845 2°52.85 19.7777 0.037492 0.211486 -0.687152
2010-09-15 10:15:36 51°19.638 2°52.789 19.8402 0.036972 0.208515 -0.652328
2010-09-15 10:16:37 51°19.424 2°52.723 19.8722 0.036452 0.205544 -0.652328
2010-09-15 10:17:36 51°19.217 2°52.71 19.8783 0.035932 0.202576 -0.687152
2010-09-15 10:18:36 51°19.006 2°52.701 19.9286 0.035516 0.200199 -0.687152
2010-09-15 10:19:36 51°18.796 2°52.684 19.9913 0.035204 0.198379 -0.687152
2010-09-15 10:20:37 51°18.586 2°52.621 19.9839 0.034788 0.196024 -0.652328
2010-09-15 10:21:37 51°18.38 2°52.544 20.0237 0.034476 0.194226 -0.652328
2010-09-15 10:22:37 51°18.169 2°52.485 20.0859 0.034164 0.192445 -0.652328
2010-09-15 10:23:36 51°17.964 2°52.44 20.0769 0.033852 0.190684 -0.687152
2010-09-15 10:24:37 51°17.75 2°52.406 20.1117 0.033644 0.189508 -0.652328
2010-09-15 10:25:36 51°17.541 2°52.402 20.1851 0.033436 0.188344 -0.687152
2010-09-15 10:26:36 51°17.33 2°52.447 20.1934 0.033124 0.186599 -0.687152
2010-09-15 10:27:36 51°17.154 2°52.614 20.2527 0.032812 0.184739 -0.687152
2010-09-15 10:28:36 51°17.001 2°52.843 20.2622 4.098887 31.344159 -0.652328
2010-09-15 10:29:37 51°16.814 2°53.019 20.3144 0.261988 1.486939 -0.687152
2010-09-15 10:30:36 51°16.606 2°53.106 20.3234 0.089406 0.479814 -0.652328
2010-09-15 10:31:37 51°16.391 2°53.186 20.3312 0.074318 0.392527 -0.652328
2010-09-15 10:32:37 51°16.184 2°53.279 20.3602 0.072549 0.377982 -0.652328
2010-09-15 10:33:36 51°15.98 2°53.365 20.3797 0.072236 0.370501 -0.687152
2010-09-15 10:34:36 51°15.791 2°53.516 20.3968 0.072444 0.368239 -0.687152
2010-09-15 10:35:36 51°15.616 2°53.709 20.4267 0.072757 0.368875 -0.687152
2010-09-15 10:36:36 51°15.45 2°53.921 20.4483 0.074525 0.378197 -0.687152
2010-09-15 10:37:36 51°15.282 2°54.137 20.4794 0.075774 0.385004 -0.721976
2010-09-15 10:38:37 51°15.108 2°54.347 20.5027 0.077023 0.392103 -0.721976
2010-09-15 10:39:36 51°14.934 2°54.546 20.5369 0.078167 0.398411 -0.687152
2010-09-15 10:40:36 51°14.755 2°54.749 20.5504 0.079 0.402942 -0.687152
2010-09-15 10:41:37 51°14.574 2°54.949 20.5942 0.07952 0.405707 -0.721976
2010-09-15 10:42:36 51°14.402 2°55.143 20.6038 0.080456 0.410736 -0.687152
2010-09-15 10:43:37 51°14.245 2°55.312 20.6328 0.081081 0.414292 -0.721976
2010-09-15 10:44:40 51°14.106 2°55.427 20.6548 0.081393 0.416185 -0.687152
2010-09-15 10:45:38 51°13.978 2°55.521 20.6714 0.081393 0.416399 -0.687152
2010-09-15 10:46:36 51°13.878 2°55.596 20.6839 0.081081 0.414949 -0.687152
2010-09-15 10:47:36 51°13.785 2°55.685 20.7021 0.080665 0.412978 -0.687152
2010-09-15 10:48:36 51°13.719 2°55.795 20.7143 0.080248 0.410951 -0.687152
2010-09-15 10:49:37 51°13.672 2°55.91 20.7366 0.079832 0.408929 -0.721976
2010-09-15 10:50:37 51°13.662 2°55.96 20.7736 0.07952 0.407373 -0.687152
2010-09-15 10:51:39 51°13.662 2°55.959 20.7955 0.079208 0.405959 -0.687152
2010-09-15 10:52:37 51°13.662 2°55.959 20.8053 0.079 0.404995 -0.687152